createdAt,value
2023-05-23T00:02:44.890Z,13.35
2023-05-23T00:17:48.424Z,13.74
2023-05-23T00:32:54.018Z,14.14
2023-05-23T00:47:59.331Z,13.36
2023-05-23T01:03:02.309Z,13.78
2023-05-23T01:18:14.562Z,13.60
2023-05-23T01:33:18.280Z,13.40
2023-05-23T01:48:22.223Z,14.33
2023-05-23T02:03:25.025Z,13.24
2023-05-23T02:18:29.334Z,14.59
2023-05-23T02:33:32.498Z,13.38
2023-05-23T02:48:35.349Z,14.54
2023-05-23T03:03:38.435Z,13.14
2023-05-23T03:18:44.012Z,14.53
2023-05-23T03:33:46.760Z,14.03
2023-05-23T03:48:49.652Z,14.51
2023-05-23T04:03:52.966Z,15.18
2023-05-23T04:18:58.636Z,16.49
2023-05-23T04:34:02.727Z,17.33
2023-05-23T04:49:05.767Z,18.49
2023-05-23T05:04:08.677Z,20.74
2023-05-23T05:19:11.761Z,23.20
2023-05-23T05:34:14.624Z,26.38
2023-05-23T05:49:19.756Z,27.83
2023-05-23T06:04:22.417Z,27.41
2023-05-23T06:19:25.366Z,29.20
2023-05-23T06:34:28.563Z,31.17
2023-05-23T06:49:31.414Z,31.89
2023-05-23T07:04:34.118Z,31.88
2023-05-23T07:19:37.844Z,32.48
2023-05-23T07:34:41.306Z,32.18
2023-05-23T07:49:45.081Z,34.51
2023-05-23T08:04:48.546Z,35.07
2023-05-23T08:19:51.761Z,33.16
2023-05-23T08:34:54.474Z,30.43
2023-05-23T08:49:59.496Z,28.52
2023-05-23T09:05:02.634Z,27.21
2023-05-23T09:20:15.275Z,26.28
2023-05-23T09:35:22.997Z,25.24
2023-05-23T09:50:32.411Z,23.92
2023-05-23T10:05:41.622Z,22.77
2023-05-23T10:20:49.642Z,21.93
2023-05-23T10:35:55.831Z,21.23
2023-05-23T10:51:06.617Z,20.86
2023-05-23T11:06:28.124Z,22.23
2023-05-23T11:21:32.258Z,22.97
2023-05-23T11:36:36.161Z,23.41
2023-05-23T11:51:39.271Z,23.86
2023-05-23T12:06:42.550Z,24.81
2023-05-23T12:21:49.659Z,25.62
2023-05-23T12:37:10.530Z,25.55
2023-05-23T12:52:19.963Z,25.09
2023-05-23T13:07:23.873Z,24.66
2023-05-23T13:22:26.653Z,24.64
2023-05-23T13:37:29.341Z,25.20
2023-05-23T13:52:32.127Z,25.73
2023-05-23T14:07:34.904Z,25.46
2023-05-23T14:22:37.669Z,24.94
2023-05-23T14:37:40.653Z,24.72
2023-05-23T14:52:43.378Z,24.78
2023-05-23T15:07:46.599Z,24.75
2023-05-23T15:22:49.515Z,24.63
2023-05-23T15:37:52.364Z,24.73
2023-05-23T15:52:55.323Z,24.52
2023-05-23T16:07:57.999Z,24.06
2023-05-23T16:23:01.170Z,23.36
2023-05-23T16:38:03.902Z,22.65
2023-05-23T16:53:06.563Z,21.98
2023-05-23T17:08:09.468Z,21.87
2023-05-23T17:23:12.707Z,21.92
2023-05-23T17:38:16.821Z,21.79
2023-05-23T17:53:19.669Z,21.40
2023-05-23T18:08:22.880Z,20.96
2023-05-23T18:23:26.386Z,21.68
2023-05-23T18:38:36.046Z,21.80
2023-05-23T18:53:42.212Z,21.34
2023-05-23T19:08:45.569Z,20.16
2023-05-23T19:23:48.293Z,19.61
2023-05-23T19:38:52.115Z,20.13
2023-05-23T19:53:55.009Z,20.67
2023-05-23T20:08:57.912Z,19.79
2023-05-23T20:24:01.086Z,20.76
2023-05-23T20:39:04.158Z,19.74
2023-05-23T20:54:07.364Z,19.84
2023-05-23T21:09:10.078Z,19.48
2023-05-23T21:24:14.328Z,19.53
2023-05-23T21:39:17.008Z,19.90
2023-05-23T21:54:20.019Z,19.20
2023-05-23T22:09:22.692Z,19.02
2023-05-23T22:24:26.418Z,18.85
2023-05-23T22:39:29.099Z,18.60
2023-05-23T22:54:31.878Z,20.12
2023-05-23T23:09:34.967Z,19.46
2023-05-23T23:24:37.674Z,19.85
2023-05-23T23:39:40.352Z,20.07
2023-05-23T23:54:43.297Z,20.63
